Share

Ak'Jar, Russia

12:01 PM YEKT on April 24, 2014 (GMT +0600)
Orsk (UWOR) Elev 909 ft | 51.07 °N, 58.60 °E | Change Station

Current weather conditions updated 1 hour ago

Clear
Clear
55 °F
Feels Like 55 °F
N
9
Wind Variable Wind from WSW
Sunrise 6:52 AM
Sunset 9:19 PM
Moon Waning Crescent

Today is forecast to be nearly the same temperature as yesterday. A mix of rain and snow late tonight.

Pressure 29.74 in
Visibility -9999.0 miles
Clouds
Dew Point 23 °F
Humidity 29%
Rainfall 0.00 in
Snow Depth Not available.
UV Not available.
Pollen Not available.
Air Quality Not available.
Flu Activity Not available.
METAR UWOR 240500Z 25004MPS CAVOK 13/M05 Q1007 25CLRD65 NOSIG RMK QFE731/0975

More Conditions Fewer Conditions

Pressure 29.74 in
Visibility -9999.0 miles
Clouds
Dew Point 23 °F
Humidity 29%
Rainfall 0.00 in
Snow Depth Not available.
UV Not available.
Pollen Not available.
Air Quality Not available.
Flu Activity Not available.
METAR UWOR 240500Z 25004MPS CAVOK 13/M05 Q1007 25CLRD65 NOSIG RMK QFE731/0975

More Conditions Fewer Conditions

10-Day Weather Forecast

Almanac

Astronomy

Apr. 24, 2014 Rise Set
Actual Time 6:52 AM YEKT 9:19 PM YEKT
Civil Twilight 6:15 AM YEKT 9:56 PM YEKT
Nautical Twilight 5:28 AM YEKT 10:44 PM YEKT
Astronomical Twilight 4:32 AM YEKT 11:40 PM YEKT
Moon 4:28 AM YEKT 3:30 PM YEKT
Length of Visible Light 15h 41m
Length of Day
14h 26m
Tomorrow will be 3m 44s longer.
Waning Crescent, 29% of the Moon is Illuminated
Today
Waning Crescent
Apr 29
New
May 6
First Quarter
May 14
Full
May 21
Last Quarter

Yesterday's Extremes

Country Highs Country Lows

Community

  • Stacked
    Stacked
  • clouds approaching Red Sox Nation
    clouds approaching Red Sox Nation
  • Balance
    Balance
  • Nestled In
    Nestled In
  • Stunning Sunrise
    Stunning Sunrise

WunderPhotos

Upload Photos

1,704,566 photos uploaded!

WunderBlogs® & News

Nearby

Snow Depth

Not available.

Coastal Water Temperatures

Place Temperature
No Stations Reporting

Earthquake Activity

City Distance Mag. Time & Date
No recent earthquake activity has been reported nearby.
Minimum magnitude displayed is 2.5.

Nearby Weather Stations

There are no personal weather stations in this area.

What do you think?

We're not finished. Please let us know what you like, what you don't like, and what you are still missing.